Time;durP1;ratioP1;P1;durP2;ratioP2;P2;SDS_P1;SDS_P2;PMS_P1;PMS_P2;Temp;Humidity;BMP_temperature;BMP_pressure;BME280_temperature;BME280_humidity;BME280_pressure;Samples;Min_cycle;Max_cycle;Signal;HPM_P1;HPM_P2
2023/08/24 00:00:30;;;;;;;;;20.00;20.00;;;;;17.90;65.95;100121.53;4975198;28;9535;-90
2023/08/24 00:02:58;;;;;;;;;23.50;21.25;;;;;17.87;65.92;100124.56;4975072;28;8879;-90
2023/08/24 00:05:26;;;;;;;;;18.75;18.75;;;;;17.83;66.12;100116.97;4975252;28;8836;-90
2023/08/24 00:07:53;;;;;;;;;20.50;20.50;;;;;17.80;66.18;100115.44;4975410;28;8859;-90
2023/08/24 00:10:21;;;;;;;;;17.50;17.50;;;;;17.78;66.28;100111.22;4975024;28;8864;-90
2023/08/24 00:12:48;;;;;;;;;22.00;21.00;;;;;17.77;66.23;100113.06;4974610;28;8841;-90
2023/08/24 00:15:16;;;;;;;;;21.25;20.00;;;;;17.76;65.98;100110.53;4974884;28;9502;-90
2023/08/24 00:17:44;;;;;;;;;23.00;23.00;;;;;17.77;66.26;100104.16;4975370;28;8841;-90
2023/08/24 00:20:13;;;;;;;;;23.50;21.25;;;;;17.75;65.80;100103.47;4974785;28;8959;-90
2023/08/24 00:22:41;;;;;;;;;25.50;23.50;;;;;17.74;66.37;100097.22;4974760;28;8959;-90
2023/08/24 00:25:09;;;;;;;;;20.00;18.75;;;;;17.73;66.20;100092.00;4975643;28;8852;-90
2023/08/24 00:27:36;;;;;;;;;20.75;19.75;;;;;17.70;66.31;100089.63;4974684;28;8849;-90
2023/08/24 00:30:04;;;;;;;;;21.00;20.50;;;;;17.67;66.48;100093.50;4974901;28;8993;-90
2023/08/24 00:32:33;;;;;;;;;20.75;20.25;;;;;17.65;66.03;100100.91;4975185;28;8841;-90
2023/08/24 00:35:01;;;;;;;;;19.00;18.25;;;;;17.63;66.22;100097.50;4975058;28;8844;-90
2023/08/24 00:37:29;;;;;;;;;20.50;18.75;;;;;17.60;66.72;100086.25;4974392;28;8813;-90
2023/08/24 00:39:57;;;;;;;;;21.00;20.50;;;;;17.58;66.58;100091.78;4975491;28;8845;-90
2023/08/24 00:42:24;;;;;;;;;23.50;21.25;;;;;17.56;66.82;100084.88;4974432;28;8907;-90
2023/08/24 00:44:52;;;;;;;;;20.75;20.50;;;;;17.51;66.82;100081.81;4974088;28;8867;-90
2023/08/24 00:47:20;;;;;;;;;20.00;19.50;;;;;17.49;66.97;100090.06;4974760;28;8847;-90
2023/08/24 00:49:47;;;;;;;;;14.60;13.80;;;;;17.46;66.56;100093.06;4975020;28;8848;-90
2023/08/24 00:52:15;;;;;;;;;14.50;13.00;;;;;17.42;66.94;100096.25;4975166;28;9530;-90
2023/08/24 00:54:43;;;;;;;;;19.00;16.25;;;;;17.39;66.89;100088.50;4974723;28;8853;-90
2023/08/24 00:57:10;;;;;;;;;19.00;18.50;;;;;17.35;66.63;100093.34;4974171;28;8857;-90
2023/08/24 00:59:38;;;;;;;;;17.00;16.00;;;;;17.32;67.23;100084.75;4976743;28;9413;-90
2023/08/24 01:02:06;;;;;;;;;18.00;17.00;;;;;17.30;67.12;100084.91;4977809;28;8837;-90
2023/08/24 01:04:33;;;;;;;;;18.25;18.25;;;;;17.29;66.57;100080.53;4978448;28;8852;-90
2023/08/24 01:07:01;;;;;;;;;16.75;16.00;;;;;17.28;67.13;100073.44;4977581;28;8859;-89
2023/08/24 01:09:29;;;;;;;;;20.00;18.00;;;;;17.28;67.20;100065.38;4977286;28;8847;-89
2023/08/24 01:11:56;;;;;;;;;17.25;16.25;;;;;17.28;67.13;100067.22;4977917;28;8828;-88
2023/08/24 01:14:24;;;;;;;;;15.75;15.75;;;;;17.24;67.28;100064.00;4978125;28;8841;-88
2023/08/24 01:16:51;;;;;;;;;15.50;15.00;;;;;17.20;67.46;100061.78;4977839;28;8833;-88
2023/08/24 01:19:19;;;;;;;;;21.50;21.00;;;;;17.17;67.23;100062.94;4978153;28;8840;-89
2023/08/24 01:21:47;;;;;;;;;17.00;15.50;;;;;17.12;67.69;100065.31;4977742;28;8890;-88
2023/08/24 01:24:15;;;;;;;;;19.50;19.00;;;;;17.09;67.54;100065.59;4977642;28;8841;-88
2023/08/24 01:26:43;;;;;;;;;20.00;18.75;;;;;17.06;67.95;100068.63;4977652;28;8883;-88
2023/08/24 01:29:10;;;;;;;;;20.00;19.00;;;;;17.01;66.98;100062.88;4977645;28;8887;-88
2023/08/24 01:31:38;;;;;;;;;13.75;13.75;;;;;17.00;67.51;100060.38;4977864;28;8860;-89
2023/08/24 01:34:06;;;;;;;;;16.50;16.50;;;;;16.97;67.38;100066.91;4978369;28;8824;-88
2023/08/24 01:36:33;;;;;;;;;19.00;18.50;;;;;16.96;67.91;100070.59;4977345;28;8821;-88
2023/08/24 01:39:06;;;;;;;;;15.00;15.00;;;;;16.94;67.66;100072.56;4977529;28;8848;-88
2023/08/24 01:41:35;;;;;;;;;17.00;16.00;;;;;16.93;67.69;100070.06;4977080;28;8848;-88
2023/08/24 01:44:03;;;;;;;;;23.75;21.00;;;;;16.90;67.37;100057.78;4977536;28;8848;-88
2023/08/24 01:46:31;;;;;;;;;15.50;13.25;;;;;16.87;67.31;100050.00;4977240;28;8872;-88
2023/08/24 01:48:58;;;;;;;;;13.25;13.25;;;;;16.86;67.78;100051.00;4977200;28;8863;-88
2023/08/24 01:51:26;;;;;;;;;16.75;16.50;;;;;16.84;67.60;100052.16;4977838;28;8852;-88
2023/08/24 01:53:54;;;;;;;;;18.25;17.50;;;;;16.84;67.82;100049.47;4977211;28;8836;-88
2023/08/24 01:56:21;;;;;;;;;18.25;18.00;;;;;16.86;67.56;100052.88;4977031;28;8970;-88
2023/08/24 01:58:49;;;;;;;;;17.25;17.00;;;;;16.86;67.39;100055.56;4977284;28;8871;-88
2023/08/24 02:01:16;;;;;;;;;20.00;18.00;;;;;16.87;67.60;100044.63;4976871;28;8886;-88
2023/08/24 02:03:44;;;;;;;;;18.00;16.00;;;;;16.88;67.30;100040.97;4977100;28;8923;-88
2023/08/24 02:06:12;;;;;;;;;16.25;15.00;;;;;16.90;67.43;100038.94;4977483;28;9088;-88
2023/08/24 02:08:40;;;;;;;;;19.00;18.50;;;;;16.90;67.29;100030.88;4977511;28;8825;-88
2023/08/24 02:11:07;;;;;;;;;22.50;22.25;;;;;16.90;67.91;100035.41;4975927;28;9555;-88
2023/08/24 02:13:35;;;;;;;;;23.00;21.00;;;;;16.86;67.75;100037.56;4977413;28;8852;-88
2023/08/24 02:16:02;;;;;;;;;22.25;19.00;;;;;16.84;68.09;100046.78;4977091;28;8851;-88
2023/08/24 02:18:30;;;;;;;;;20.75;20.00;;;;;16.82;67.88;100046.97;4976993;28;9186;-88
2023/08/24 02:20:58;;;;;;;;;21.50;20.75;;;;;16.81;67.89;100031.84;4977027;28;8848;-88
2023/08/24 02:23:26;;;;;;;;;23.50;22.50;;;;;16.81;68.05;100033.66;4977165;28;8890;-88
2023/08/24 02:25:54;;;;;;;;;21.25;20.50;;;;;16.80;67.60;100030.13;4975968;28;8991;-88
2023/08/24 02:28:21;;;;;;;;;24.50;22.00;;;;;16.80;67.90;100027.44;4976572;28;8840;-88
2023/08/24 02:30:49;;;;;;;;;27.25;25.00;;;;;16.80;67.84;100010.47;4977694;28;8868;-88
2023/08/24 02:33:16;;;;;;;;;30.00;26.50;;;;;16.82;67.81;100017.38;4976363;28;8829;-88
2023/08/24 02:35:44;;;;;;;;;24.50;24.50;;;;;16.83;68.27;100021.75;4977354;28;8855;-88
2023/08/24 02:38:12;;;;;;;;;21.50;19.00;;;;;16.85;67.61;100014.34;4977052;28;8876;-88
2023/08/24 02:40:40;;;;;;;;;20.00;20.00;;;;;16.87;67.57;100019.59;4976413;28;8844;-88
2023/08/24 02:43:07;;;;;;;;;22.00;18.50;;;;;16.87;67.24;100025.78;4976746;28;9507;-88
2023/08/24 02:45:35;;;;;;;;;24.00;21.75;;;;;16.85;67.71;100026.97;4976993;28;8949;-88
2023/08/24 02:48:03;;;;;;;;;19.00;19.00;;;;;16.83;67.75;100027.13;4976381;28;8844;-88
2023/08/24 02:50:31;;;;;;;;;24.00;21.00;;;;;16.82;67.50;100025.44;4976695;28;9019;-88
2023/08/24 02:53:01;;;;;;;;;20.25;19.25;;;;;16.81;67.47;100023.75;4976140;28;8844;-88
2023/08/24 02:55:29;;;;;;;;;18.00;17.00;;;;;16.81;67.77;100028.28;4976459;28;8840;-88
2023/08/24 02:57:56;;;;;;;;;23.50;21.00;;;;;16.80;67.70;100027.44;4975800;28;8849;-88
2023/08/24 03:00:24;;;;;;;;;19.50;18.75;;;;;16.79;67.89;100017.69;4976047;28;8852;-88
2023/08/24 03:02:51;;;;;;;;;22.00;19.00;;;;;16.79;67.79;100019.53;4976015;28;8840;-88
2023/08/24 03:05:19;;;;;;;;;18.75;18.25;;;;;16.78;68.19;100013.31;4975358;28;9515;-88
2023/08/24 03:07:46;;;;;;;;;22.50;21.50;;;;;16.78;67.94;100007.09;4975598;28;8852;-88
2023/08/24 03:10:15;;;;;;;;;26.50;24.75;;;;;16.79;67.74;100020.38;4975862;28;8991;-88
2023/08/24 03:12:42;;;;;;;;;16.00;15.00;;;;;16.78;68.00;100024.06;4975707;28;8837;-88
2023/08/24 03:15:10;;;;;;;;;22.50;21.00;;;;;16.76;67.99;100022.53;4976050;28;8863;-88
2023/08/24 03:17:38;;;;;;;;;20.00;19.00;;;;;16.73;67.82;100029.09;4976389;28;8852;-88
2023/08/24 03:20:05;;;;;;;;;23.25;20.00;;;;;16.70;68.33;100026.72;4975852;28;8930;-88
2023/08/24 03:22:33;;;;;;;;;18.00;18.00;;;;;16.68;67.96;100023.34;4975155;28;8853;-88
2023/08/24 03:25:00;;;;;;;;;12.25;12.25;;;;;16.68;67.91;100017.09;4975829;28;8867;-88
2023/08/24 03:27:28;;;;;;;;;17.50;17.00;;;;;16.69;67.73;100019.66;4975337;28;8857;-88
2023/08/24 03:29:56;;;;;;;;;18.25;16.00;;;;;16.70;67.83;100026.72;4975246;28;8879;-88
2023/08/24 03:32:23;;;;;;;;;21.50;19.50;;;;;16.71;68.02;100017.63;4976388;28;8837;-88
2023/08/24 03:34:51;;;;;;;;;21.00;18.50;;;;;16.74;67.91;100017.34;4975104;28;8852;-88
2023/08/24 03:37:19;;;;;;;;;23.00;21.50;;;;;16.77;68.00;100014.31;4975420;28;9513;-88
2023/08/24 03:39:46;;;;;;;;;21.00;19.75;;;;;16.79;67.98;100020.38;4976041;28;8829;-88
2023/08/24 03:42:14;;;;;;;;;24.00;21.75;;;;;16.79;67.64;100028.44;4975666;28;8829;-88
2023/08/24 03:44:41;;;;;;;;;20.75;19.00;;;;;16.80;68.06;100019.38;4975574;28;8833;-88
2023/08/24 03:47:09;;;;;;;;;20.50;18.50;;;;;16.80;67.88;100022.06;4975436;28;8876;-88
2023/08/24 03:49:37;;;;;;;;;20.50;18.50;;;;;16.83;67.66;100016.38;4975005;28;8865;-88
2023/08/24 03:52:05;;;;;;;;;16.50;15.75;;;;;16.86;68.27;100012.53;4974938;28;8847;-88
2023/08/24 03:54:33;;;;;;;;;14.25;13.75;;;;;16.89;67.56;100018.44;4974944;28;8868;-88
2023/08/24 03:57:00;;;;;;;;;19.50;18.25;;;;;16.96;67.63;100021.31;4975028;28;8891;-88
2023/08/24 03:59:28;;;;;;;;;20.00;18.75;;;;;17.00;67.03;100007.38;4975777;28;8864;-88
2023/08/24 04:01:55;;;;;;;;;20.50;19.50;;;;;17.05;67.19;100012.25;4974815;28;8875;-88
2023/08/24 04:04:23;;;;;;;;;18.00;17.50;;;;;17.09;67.94;100017.16;4975357;28;8864;-89
2023/08/24 04:06:50;;;;;;;;;17.25;16.25;;;;;17.11;67.40;100023.25;4975138;28;8855;-88
2023/08/24 04:09:18;;;;;;;;;16.25;16.25;;;;;17.11;67.07;100025.94;4975435;28;8856;-88
2023/08/24 04:11:46;;;;;;;;;20.50;18.25;;;;;17.13;67.18;100023.06;4975204;28;8867;-88
2023/08/24 04:14:14;;;;;;;;;19.00;17.50;;;;;17.14;67.39;100024.75;4974661;28;8840;-88
2023/08/24 04:16:42;;;;;;;;;20.00;18.25;;;;;17.14;67.45;100031.00;4975075;28;8847;-88
2023/08/24 04:19:10;;;;;;;;;21.50;21.50;;;;;17.17;67.49;100044.09;4974689;28;8845;-88
2023/08/24 04:21:37;;;;;;;;;18.75;17.75;;;;;17.20;67.22;100046.50;4974640;28;8894;-88
2023/08/24 04:24:05;;;;;;;;;22.00;20.75;;;;;17.24;67.51;100037.06;4974164;28;9523;-88
2023/08/24 04:26:33;;;;;;;;;23.00;21.00;;;;;17.28;66.72;100046.53;4974909;28;8875;-88
2023/08/24 04:29:01;;;;;;;;;22.00;21.50;;;;;17.35;66.90;100046.72;4974331;28;8994;-88
2023/08/24 04:31:29;;;;;;;;;22.00;20.00;;;;;17.39;66.77;100046.25;4974211;28;8907;-88
2023/08/24 04:33:56;;;;;;;;;22.75;22.00;;;;;17.45;67.06;100048.31;4975508;28;8883;-88
2023/08/24 04:36:24;;;;;;;;;27.50;25.50;;;;;17.48;66.45;100031.81;4978112;28;8855;-88
2023/08/24 04:38:52;;;;;;;;;18.75;18.00;;;;;17.53;66.73;100023.28;4977930;28;8840;-88
2023/08/24 04:41:19;;;;;;;;;24.00;22.00;;;;;17.56;66.95;100014.84;4978179;28;8856;-88
2023/08/24 04:43:47;;;;;;;;;18.80;18.00;;;;;17.58;66.54;100012.81;4978011;28;8854;-88
2023/08/24 04:46:14;;;;;;;;;20.00;18.00;;;;;17.57;66.68;100012.00;4977908;28;8868;-88
2023/08/24 04:48:42;;;;;;;;;15.50;13.75;;;;;17.54;67.14;100017.69;4978258;28;8860;-88
2023/08/24 04:51:10;;;;;;;;;17.00;17.00;;;;;17.53;67.00;100026.78;4978085;28;9511;-88
2023/08/24 04:53:37;;;;;;;;;22.00;21.00;;;;;17.51;67.21;100014.50;4977813;28;8868;-88
2023/08/24 04:56:05;;;;;;;;;21.00;21.00;;;;;17.51;66.70;100012.66;4977451;28;8849;-88
2023/08/24 04:58:33;;;;;;;;;23.00;22.50;;;;;17.52;67.35;100018.88;4977078;28;8871;-88
2023/08/24 05:01:01;;;;;;;;;21.00;21.00;;;;;17.55;67.20;100018.56;4977667;28;8983;-88
2023/08/24 05:03:28;;;;;;;;;25.00;25.00;;;;;17.57;66.74;100012.00;4977549;28;8844;-88
2023/08/24 05:05:56;;;;;;;;;22.25;21.00;;;;;17.59;66.62;100007.28;4977280;28;8857;-88
2023/08/24 05:08:23;;;;;;;;;24.00;24.00;;;;;17.60;66.76;100002.75;4976898;28;8840;-88
2023/08/24 05:10:51;;;;;;;;;26.50;24.75;;;;;17.62;67.18;100004.25;4976829;28;8848;-88
2023/08/24 05:13:19;;;;;;;;;20.00;18.00;;;;;17.64;67.33;100007.66;4976375;28;8848;-88
2023/08/24 05:15:46;;;;;;;;;25.00;23.25;;;;;17.65;66.84;100009.31;4976766;28;8853;-88
2023/08/24 05:18:14;;;;;;;;;24.75;24.00;;;;;17.68;67.11;100013.53;4976266;28;8876;-88
2023/08/24 05:20:42;;;;;;;;;30.75;28.00;;;;;17.71;67.20;100007.81;4976085;28;8879;-89
2023/08/24 05:23:09;;;;;;;;;22.50;20.25;;;;;17.73;66.95;100012.03;4975854;28;8833;-89
2023/08/24 05:25:37;;;;;;;;;24.25;24.00;;;;;17.76;66.42;100005.47;4975771;28;8844;-89
2023/08/24 05:28:05;;;;;;;;;25.00;25.00;;;;;17.80;66.99;99999.59;4975420;28;8868;-89
2023/08/24 05:30:32;;;;;;;;;27.75;24.75;;;;;17.83;66.41;99980.38;4975329;28;8856;-89
2023/08/24 05:33:00;;;;;;;;;24.25;24.25;;;;;17.91;66.24;99969.59;4976078;28;8840;-88
2023/08/24 05:35:28;;;;;;;;;27.25;24.25;;;;;17.95;66.24;99962.88;4975692;28;8963;-88
2023/08/24 05:37:56;;;;;;;;;29.50;28.50;;;;;17.97;66.16;99952.78;4974843;28;8861;-88
2023/08/24 05:40:23;;;;;;;;;28.50;26.75;;;;;17.96;66.84;99958.31;4974123;28;8845;-89
2023/08/24 05:42:53;;;;;;;;;26.75;24.50;;;;;17.95;66.73;99978.19;4974600;28;8940;-88
2023/08/24 05:45:20;;;;;;;;;28.00;26.00;;;;;17.93;66.82;99983.75;4974275;28;8857;-88
2023/08/24 05:47:51;;;;;;;;;29.00;28.00;;;;;17.93;66.63;99980.22;4974506;28;8856;-88
2023/08/24 05:50:19;;;;;;;;;30.00;28.75;;;;;17.95;66.92;99970.97;4974627;28;8962;-88
2023/08/24 05:52:47;;;;;;;;;30.00;26.00;;;;;17.98;66.55;99951.75;4974700;28;8843;-88
2023/08/24 05:55:15;;;;;;;;;33.00;30.25;;;;;18.02;67.00;99942.34;4974564;28;8837;-89
2023/08/24 05:57:43;;;;;;;;;32.50;30.25;;;;;18.06;66.82;99938.28;4974430;28;8848;-88
2023/08/24 06:00:11;;;;;;;;;26.75;26.25;;;;;18.11;66.95;99933.22;4974726;28;9527;-88
2023/08/24 06:02:38;;;;;;;;;31.75;29.75;;;;;18.13;66.75;99928.50;4974326;28;8855;-88
2023/08/24 06:05:07;;;;;;;;;22.50;21.50;;;;;18.13;66.76;99917.72;4975021;28;8841;-88
2023/08/24 06:07:35;;;;;;;;;26.75;26.00;;;;;18.14;66.75;99910.50;4975075;28;9541;-88
2023/08/24 06:10:03;;;;;;;;;27.75;27.00;;;;;18.14;66.65;99908.63;4974057;28;8864;-89
2023/08/24 06:12:30;;;;;;;;;29.25;27.25;;;;;18.14;66.95;99905.91;4974524;28;8856;-88
2023/08/24 06:14:58;;;;;;;;;25.25;23.50;;;;;18.16;66.53;99893.13;4975098;28;8844;-88
2023/08/24 06:17:26;;;;;;;;;27.00;25.75;;;;;18.19;66.78;99890.09;4976314;28;8828;-88
2023/08/24 06:19:54;;;;;;;;;33.50;28.75;;;;;18.22;66.71;99883.50;4976271;28;8883;-88
2023/08/24 06:22:21;;;;;;;;;27.00;26.50;;;;;18.24;66.60;99876.09;4974346;28;8852;-88
2023/08/24 06:24:49;;;;;;;;;27.60;27.00;;;;;18.28;66.86;99870.16;4974067;28;8863;-88
2023/08/24 06:27:17;;;;;;;;;24.60;24.40;;;;;18.32;67.11;99860.78;4973080;28;8852;-88
2023/08/24 06:29:44;;;;;;;;;19.20;16.80;;;;;18.37;66.84;99858.38;4974204;28;8849;-88
2023/08/24 06:32:12;;;;;;;;;21.80;21.80;;;;;18.45;66.25;99849.44;4972982;28;8856;-88
2023/08/24 06:34:40;;;;;;;;;24.20;21.80;;;;;18.54;66.35;99846.53;4972544;28;8848;-88
2023/08/24 06:37:07;;;;;;;;;18.40;16.80;;;;;18.67;66.04;99836.00;4972906;28;8866;-88
2023/08/24 06:39:35;;;;;;;;;24.60;23.20;;;;;18.82;66.03;99838.81;4973918;28;8963;-88
2023/08/24 06:42:03;;;;;;;;;30.20;24.40;;;;;18.94;65.18;99835.53;4974359;28;8860;-88
2023/08/24 06:44:31;;;;;;;;;24.20;24.00;;;;;19.07;65.53;99832.25;4974390;28;8848;-88
2023/08/24 06:46:59;;;;;;;;;22.40;21.40;;;;;19.21;65.31;99824.22;4974170;28;8930;-88
2023/08/24 06:49:28;;;;;;;;;20.60;19.60;;;;;19.32;64.80;99818.44;4974091;28;8836;-88
2023/08/24 06:51:56;;;;;;;;;25.80;22.00;;;;;19.48;64.90;99812.03;4974472;28;8844;-88
2023/08/24 06:54:24;;;;;;;;;15.20;14.20;;;;;19.63;64.14;99812.91;4973509;28;8872;-88
2023/08/24 06:56:54;;;;;;;;;20.60;19.60;;;;;19.76;64.45;99803.19;4973419;28;8986;-88
2023/08/24 06:59:22;;;;;;;;;22.20;22.20;;;;;19.91;64.01;99812.16;4974514;28;8848;-88
2023/08/24 07:01:52;;;;;;;;;20.80;18.80;;;;;20.10;63.63;99819.75;4974512;28;8902;-88
2023/08/24 07:04:19;;;;;;;;;16.00;15.80;;;;;20.27;63.29;99815.88;4974118;28;8922;-88
2023/08/24 07:06:48;;;;;;;;;17.20;17.20;;;;;20.47;63.06;99802.59;4973141;28;8890;-88
2023/08/24 07:09:18;;;;;;;;;14.80;13.40;;;;;20.63;62.64;99807.81;4972843;28;8857;-88
2023/08/24 07:11:46;;;;;;;;;13.40;12.80;;;;;20.75;62.47;99809.84;4973622;28;8967;-88
2023/08/24 07:14:14;;;;;;;;;10.00;10.00;;;;;20.92;62.76;99814.00;4972862;28;8840;-88
2023/08/24 07:16:42;;;;;;;;;13.20;11.20;;;;;21.06;62.45;99805.88;4972961;28;8868;-88
2023/08/24 07:19:13;;;;;;;;;11.00;10.40;;;;;21.21;62.09;99803.09;4972680;28;8857;-88
2023/08/24 07:21:42;;;;;;;;;15.60;15.20;;;;;21.36;61.49;99801.16;4972999;28;8871;-88
2023/08/24 07:24:09;;;;;;;;;17.80;17.80;;;;;21.49;61.55;99812.13;4973231;28;8883;-88
2023/08/24 07:26:37;;;;;;;;;23.60;20.40;;;;;21.59;61.97;99807.19;4973277;28;8889;-88
2023/08/24 07:29:05;;;;;;;;;20.40;20.40;;;;;21.66;62.02;99814.41;4973672;28;8994;-88
2023/08/24 07:31:33;;;;;;;;;20.40;18.60;;;;;21.75;61.63;99824.06;4974203;28;8875;-88
2023/08/24 07:34:04;;;;;;;;;22.80;21.00;;;;;21.80;61.75;99823.47;4973379;28;8844;-88
2023/08/24 07:36:32;;;;;;;;;19.20;18.80;;;;;21.85;61.73;99829.97;4974450;28;9528;-88
2023/08/24 07:39:00;;;;;;;;;17.40;16.20;;;;;21.90;62.08;99827.53;4973145;28;8962;-88
2023/08/24 07:41:27;;;;;;;;;22.20;19.20;;;;;21.98;61.94;99823.81;4972661;28;8852;-88
2023/08/24 07:43:55;;;;;;;;;20.40;19.80;;;;;22.06;62.09;99829.94;4972956;28;8844;-88
2023/08/24 07:46:23;;;;;;;;;22.40;18.00;;;;;22.14;62.08;99840.63;4973421;28;8888;-88
2023/08/24 07:48:51;;;;;;;;;18.80;17.00;;;;;22.23;61.59;99833.19;4972979;28;8844;-88
2023/08/24 07:51:19;;;;;;;;;11.60;11.00;;;;;22.34;61.29;99838.06;4973602;28;8837;-88
2023/08/24 07:53:46;;;;;;;;;18.60;18.40;;;;;22.45;61.17;99834.78;4973330;28;9584;-88
2023/08/24 07:56:14;;;;;;;;;10.00;10.00;;;;;22.59;61.03;99831.13;4974438;28;8927;-88
2023/08/24 07:58:43;;;;;;;;;16.20;14.80;;;;;22.75;60.77;99822.63;4973605;28;8895;-88
2023/08/24 08:01:11;;;;;;;;;14.80;14.80;;;;;22.87;60.81;99824.59;4973619;28;8860;-88
2023/08/24 08:03:39;;;;;;;;;14.60;12.60;;;;;23.01;60.31;99822.75;4973018;28;9257;-88
2023/08/24 08:06:10;;;;;;;;;13.80;13.00;;;;;23.13;60.45;99815.69;4972138;28;8970;-89
2023/08/24 08:08:37;;;;;;;;;17.60;16.60;;;;;23.26;60.23;99821.16;4973053;28;8864;-88
2023/08/24 08:11:05;;;;;;;;;13.40;12.40;;;;;23.40;59.82;99812.84;4975999;28;8852;-89
2023/08/24 08:13:33;;;;;;;;;13.60;13.00;;;;;23.53;60.18;99810.13;4976579;28;8844;-89
2023/08/24 08:16:01;;;;;;;;;10.00;8.80;;;;;23.64;59.51;99814.09;4975187;28;9590;-88
2023/08/24 08:18:29;;;;;;;;;15.00;13.80;;;;;23.73;59.74;99810.97;4974011;28;8876;-88
2023/08/24 08:20:57;;;;;;;;;11.80;10.00;;;;;23.82;59.44;99811.59;4974944;28;9503;-88
2023/08/24 08:23:24;;;;;;;;;12.80;11.60;;;;;23.89;59.35;99812.47;4974964;28;8887;-88
2023/08/24 08:25:52;;;;;;;;;10.60;10.20;;;;;23.99;59.33;99813.72;4975612;28;8915;-88
2023/08/24 08:28:21;;;;;;;;;12.40;12.00;;;;;24.09;58.76;99803.25;4975839;28;8958;-88
2023/08/24 08:30:48;;;;;;;;;14.00;13.00;;;;;24.18;58.88;99803.84;4976455;28;8871;-88
2023/08/24 08:33:16;;;;;;;;;14.80;14.00;;;;;24.28;58.69;99798.81;4976868;28;8975;-88
2023/08/24 08:35:44;;;;;;;;;13.60;13.60;;;;;24.39;58.84;99803.59;4977732;28;8983;-88
2023/08/24 08:38:12;;;;;;;;;11.20;11.20;;;;;24.50;58.53;99811.09;4977790;28;8852;-88
2023/08/24 08:40:41;;;;;;;;;13.60;12.80;;;;;24.64;58.16;99807.31;4977019;28;8994;-88
2023/08/24 08:43:08;;;;;;;;;12.00;11.40;;;;;24.75;58.10;99821.13;4977574;28;8895;-88
2023/08/24 08:45:36;;;;;;;;;11.00;11.00;;;;;24.88;57.84;99812.03;4977417;28;8869;-88
2023/08/24 08:48:05;;;;;;;;;13.60;13.00;;;;;25.01;57.58;99806.50;4977207;28;8848;-88
2023/08/24 08:50:32;;;;;;;;;13.00;12.80;;;;;25.13;57.37;99797.44;4976555;28;8887;-86
2023/08/24 08:53:00;;;;;;;;;14.00;12.00;;;;;25.26;57.04;99782.94;4977315;28;8922;-86
2023/08/24 08:55:28;;;;;;;;;9.00;9.00;;;;;25.36;56.84;99784.13;4976990;28;8837;-86
2023/08/24 08:57:58;;;;;;;;;10.80;10.80;;;;;25.45;57.00;99766.41;4977217;28;8844;-88
2023/08/24 09:00:26;;;;;;;;;7.00;6.60;;;;;25.58;56.60;99772.59;4976331;28;8995;-89
2023/08/24 09:02:55;;;;;;;;;13.00;11.00;;;;;25.68;56.05;99764.78;4975868;28;8979;-88
2023/08/24 09:05:25;;;;;;;;;11.20;11.20;;;;;25.81;56.35;99763.81;4976569;28;8844;-89
2023/08/24 09:07:53;;;;;;;;;15.40;14.60;;;;;25.95;55.66;99757.22;4976419;28;8848;-88
2023/08/24 09:10:21;;;;;;;;;11.20;11.20;;;;;26.09;56.10;99762.28;4976343;28;8872;-88
2023/08/24 09:12:49;;;;;;;;;10.60;10.40;;;;;26.24;55.90;99759.19;4975449;28;8852;-86
2023/08/24 09:15:17;;;;;;;;;12.20;12.20;;;;;26.37;55.30;99754.44;4975647;28;8860;-86
2023/08/24 09:17:45;;;;;;;;;10.40;9.60;;;;;26.48;55.26;99750.91;4976257;28;8844;-86
2023/08/24 09:20:15;;;;;;;;;11.60;11.60;;;;;26.61;54.88;99750.78;4975432;28;9567;-86
2023/08/24 09:22:44;;;;;;;;;12.00;12.00;;;;;26.73;54.89;99745.38;4975114;28;8876;-86
2023/08/24 09:25:12;;;;;;;;;12.80;11.80;;;;;26.83;54.61;99743.78;4975159;28;8848;-88
2023/08/24 09:27:41;;;;;;;;;12.00;10.60;;;;;26.93;54.83;99752.25;4976464;28;8939;-88
2023/08/24 09:30:09;;;;;;;;;8.80;8.00;;;;;27.03;54.96;99738.03;4977068;28;8880;-88
2023/08/24 09:32:37;;;;;;;;;12.00;11.60;;;;;27.15;54.64;99741.66;4975074;28;8922;-88
2023/08/24 09:35:05;;;;;;;;;6.40;6.40;;;;;27.23;54.69;99727.66;4974806;28;8856;-89
2023/08/24 09:37:33;;;;;;;;;11.20;9.40;;;;;27.36;54.41;99716.50;4973650;28;8939;-89
2023/08/24 09:40:01;;;;;;;;;10.00;9.20;;;;;27.48;53.91;99712.69;4974732;28;8859;-89
2023/08/24 09:42:28;;;;;;;;;10.40;10.40;;;;;27.60;53.87;99701.78;4974500;28;8991;-89
2023/08/24 09:44:56;;;;;;;;;11.20;11.00;;;;;27.74;53.45;99690.38;4976014;28;8978;-89
2023/08/24 09:47:24;;;;;;;;;11.40;11.40;;;;;27.97;53.42;99682.16;4976017;28;8855;-89
2023/08/24 09:49:54;;;;;;;;;12.20;12.00;;;;;28.24;52.93;99672.38;4974276;28;9621;-89
2023/08/24 09:52:22;;;;;;;;;12.00;11.60;;;;;28.54;52.68;99670.28;4974470;28;9210;-89
2023/08/24 09:54:49;;;;;;;;;8.80;8.80;;;;;28.84;52.23;99670.81;4973272;28;8836;-89
2023/08/24 09:57:17;;;;;;;;;10.80;10.80;;;;;29.16;51.50;99672.00;4973487;28;8844;-89
2023/08/24 09:59:45;;;;;;;;;9.00;9.00;;;;;29.53;51.51;99670.47;4972722;28;8856;-89
2023/08/24 10:02:15;;;;;;;;;10.00;10.00;;;;;29.99;50.29;99663.72;4973869;28;8860;-89
2023/08/24 10:04:43;;;;;;;;;8.80;8.80;;;;;30.40;49.84;99653.03;4974082;28;8858;-86
2023/08/24 10:07:11;;;;;;;;;8.00;8.00;;;;;30.75;49.34;99651.53;4973936;28;8955;-86
2023/08/24 10:09:39;;;;;;;;;9.20;9.20;;;;;31.11;49.00;99664.56;4974868;28;8860;-86
2023/08/24 10:12:07;;;;;;;;;11.20;10.20;;;;;31.41;48.61;99656.59;4974043;28;8853;-86
2023/08/24 10:14:36;;;;;;;;;9.00;9.00;;;;;31.56;48.62;99650.38;4973890;28;8862;-87
2023/08/24 10:17:04;;;;;;;;;8.80;8.80;;;;;31.62;48.65;99663.91;4975021;28;8833;-86
2023/08/24 10:19:32;;;;;;;;;9.00;9.00;;;;;31.70;48.33;99668.13;4974949;28;9526;-87
2023/08/24 10:21:59;;;;;;;;;9.40;9.40;;;;;31.88;47.54;99667.72;4974916;28;8849;-86
2023/08/24 10:24:27;;;;;;;;;7.80;7.80;;;;;32.09;47.81;99677.75;4974075;28;8875;-86
2023/08/24 10:26:55;;;;;;;;;10.60;10.00;;;;;32.30;47.58;99677.63;4973225;28;8999;-86
2023/08/24 10:29:23;;;;;;;;;8.20;8.00;;;;;32.58;46.81;99690.13;4973871;28;8852;-86
2023/08/24 10:31:51;;;;;;;;;9.80;8.00;;;;;32.80;46.42;99699.91;4973745;28;9308;-86
2023/08/24 10:34:19;;;;;;;;;8.40;8.40;;;;;33.01;46.46;99706.31;4974632;28;8856;-86
2023/08/24 10:36:47;;;;;;;;;6.20;6.20;;;;;33.15;45.82;99696.41;4973891;28;8860;-86
2023/08/24 10:39:16;;;;;;;;;7.60;7.60;;;;;33.34;45.51;99706.66;4973000;28;8872;-86
2023/08/24 10:41:44;;;;;;;;;9.40;9.40;;;;;33.55;45.72;99707.50;4974650;28;8853;-86
2023/08/24 10:44:12;;;;;;;;;5.00;5.00;;;;;33.73;45.27;99701.41;4975743;28;8853;-87
2023/08/24 10:46:39;;;;;;;;;7.40;7.00;;;;;33.88;45.37;99698.66;4974830;28;8868;-87
2023/08/24 10:49:07;;;;;;;;;7.80;7.80;;;;;33.98;45.45;99690.34;4974450;28;8938;-87
2023/08/24 10:51:35;;;;;;;;;9.00;8.80;;;;;34.00;45.51;99685.38;4974388;28;8883;-87
2023/08/24 10:54:03;;;;;;;;;7.00;7.00;;;;;33.91;45.26;99674.03;4974505;28;8841;-87
2023/08/24 10:56:30;;;;;;;;;9.00;8.80;;;;;33.78;46.09;99679.31;4973550;28;8872;-87
2023/08/24 10:58:58;;;;;;;;;8.40;8.40;;;;;33.63;46.07;99679.31;4973499;28;8857;-86
2023/08/24 11:01:26;;;;;;;;;8.40;8.40;;;;;33.52;46.16;99672.97;4972935;28;8860;-87
2023/08/24 11:03:54;;;;;;;;;9.40;9.00;;;;;33.49;46.47;99670.75;4971990;28;8978;-87
2023/08/24 11:06:22;;;;;;;;;6.80;6.80;;;;;33.48;46.31;99669.09;4973702;28;8860;-86
2023/08/24 11:08:50;;;;;;;;;9.60;8.60;;;;;33.44;46.40;99678.22;4972471;28;8987;-86
2023/08/24 11:11:18;;;;;;;;;6.40;6.40;;;;;33.46;46.24;99676.81;4971557;28;8849;-86
2023/08/24 11:13:46;;;;;;;;;7.00;6.00;;;;;33.51;46.10;99673.25;4971432;28;9250;-86
2023/08/24 11:16:14;;;;;;;;;6.20;6.20;;;;;33.49;46.43;99668.00;4972913;28;8841;-87
2023/08/24 11:18:42;;;;;;;;;8.00;8.00;;;;;33.61;46.02;99659.41;4972336;28;8844;-86
2023/08/24 11:21:10;;;;;;;;;7.40;7.40;;;;;33.81;45.94;99668.53;4970433;28;8882;-86
2023/08/24 11:23:38;;;;;;;;;4.80;4.80;;;;;34.01;45.02;99662.13;4969003;28;9232;-86
2023/08/24 11:26:06;;;;;;;;;7.20;6.40;;;;;34.20;44.58;99655.69;4969840;28;8950;-86